sensor_id;sensor_type;location;lat;lon;timestamp;P1;durP1;ratioP1;P2;durP2;ratioP2
72728;SDS011;60843;52.062;4.508;2022-10-24T00:01:37;4.38;;;2.08;;
72728;SDS011;60843;52.062;4.508;2022-10-24T00:04:03;5.30;;;1.67;;
72728;SDS011;60843;52.062;4.508;2022-10-24T00:06:28;4.35;;;1.58;;
72728;SDS011;60843;52.062;4.508;2022-10-24T00:08:54;5.57;;;1.92;;
72728;SDS011;60843;52.062;4.508;2022-10-24T00:11:24;5.93;;;2.03;;
72728;SDS011;60843;52.062;4.508;2022-10-24T00:13:51;4.45;;;1.73;;
72728;SDS011;60843;52.062;4.508;2022-10-24T00:16:21;5.70;;;2.03;;
72728;SDS011;60843;52.062;4.508;2022-10-24T00:18:46;7.97;;;1.90;;
72728;SDS011;60843;52.062;4.508;2022-10-24T00:21:12;8.40;;;2.10;;
72728;SDS011;60843;52.062;4.508;2022-10-24T00:23:38;8.95;;;1.83;;
72728;SDS011;60843;52.062;4.508;2022-10-24T00:26:04;5.63;;;1.67;;
72728;SDS011;60843;52.062;4.508;2022-10-24T00:28:30;4.03;;;1.45;;
72728;SDS011;60843;52.062;4.508;2022-10-24T00:30:57;7.90;;;1.70;;
72728;SDS011;60843;52.062;4.508;2022-10-24T00:33:22;8.10;;;2.03;;
72728;SDS011;60843;52.062;4.508;2022-10-24T00:35:48;6.72;;;1.80;;
72728;SDS011;60843;52.062;4.508;2022-10-24T00:38:14;4.65;;;1.40;;
72728;SDS011;60843;52.062;4.508;2022-10-24T00:40:39;7.83;;;1.90;;
72728;SDS011;60843;52.062;4.508;2022-10-24T00:43:09;5.22;;;1.55;;
72728;SDS011;60843;52.062;4.508;2022-10-24T00:45:45;7.07;;;1.92;;
72728;SDS011;60843;52.062;4.508;2022-10-24T00:48:26;8.13;;;1.70;;
72728;SDS011;60843;52.062;4.508;2022-10-24T00:50:57;8.60;;;1.58;;
72728;SDS011;60843;52.062;4.508;2022-10-24T00:53:25;8.88;;;1.52;;
72728;SDS011;60843;52.062;4.508;2022-10-24T00:55:52;5.90;;;1.27;;
72728;SDS011;60843;52.062;4.508;2022-10-24T00:58:20;3.70;;;1.25;;
72728;SDS011;60843;52.062;4.508;2022-10-24T01:00:46;5.10;;;1.27;;
72728;SDS011;60843;52.062;4.508;2022-10-24T01:03:12;6.20;;;1.40;;
72728;SDS011;60843;52.062;4.508;2022-10-24T01:06:22;5.75;;;1.50;;
72728;SDS011;60843;52.062;4.508;2022-10-24T01:25:46;6.25;;;1.58;;
72728;SDS011;60843;52.062;4.508;2022-10-24T01:31:14;4.35;;;1.02;;
72728;SDS011;60843;52.062;4.508;2022-10-24T01:33:50;6.93;;;1.10;;
72728;SDS011;60843;52.062;4.508;2022-10-24T01:36:20;8.80;;;1.35;;
72728;SDS011;60843;52.062;4.508;2022-10-24T01:38:55;5.15;;;1.00;;
72728;SDS011;60843;52.062;4.508;2022-10-24T01:41:23;6.43;;;1.30;;
72728;SDS011;60843;52.062;4.508;2022-10-24T01:43:55;6.13;;;1.05;;
72728;SDS011;60843;52.062;4.508;2022-10-24T01:46:43;3.92;;;0.90;;
72728;SDS011;60843;52.062;4.508;2022-10-24T01:49:14;5.25;;;1.05;;
72728;SDS011;60843;52.062;4.508;2022-10-24T01:51:42;2.97;;;1.20;;
72728;SDS011;60843;52.062;4.508;2022-10-24T01:54:08;6.43;;;1.00;;
72728;SDS011;60843;52.062;4.508;2022-10-24T01:56:34;2.70;;;0.82;;
72728;SDS011;60843;52.062;4.508;2022-10-24T01:59:05;8.07;;;1.00;;
72728;SDS011;60843;52.062;4.508;2022-10-24T02:01:52;5.18;;;1.00;;
72728;SDS011;60843;52.062;4.508;2022-10-24T02:04:29;3.88;;;1.05;;
72728;SDS011;60843;52.062;4.508;2022-10-24T02:06:56;3.75;;;0.90;;
72728;SDS011;60843;52.062;4.508;2022-10-24T02:09:25;4.15;;;0.80;;
72728;SDS011;60843;52.062;4.508;2022-10-24T02:11:50;2.70;;;1.10;;
72728;SDS011;60843;52.062;4.508;2022-10-24T02:14:18;6.07;;;1.05;;
72728;SDS011;60843;52.062;4.508;2022-10-24T02:16:47;2.92;;;0.85;;
72728;SDS011;60843;52.062;4.508;2022-10-24T02:19:13;2.80;;;0.80;;
72728;SDS011;60843;52.062;4.508;2022-10-24T02:21:43;2.60;;;0.82;;
72728;SDS011;60843;52.062;4.508;2022-10-24T02:24:15;5.88;;;1.08;;
72728;SDS011;60843;52.062;4.508;2022-10-24T02:26:47;6.25;;;0.90;;
72728;SDS011;60843;52.062;4.508;2022-10-24T02:29:16;3.22;;;0.80;;
72728;SDS011;60843;52.062;4.508;2022-10-24T02:31:47;11.18;;;1.17;;
72728;SDS011;60843;52.062;4.508;2022-10-24T02:34:15;2.35;;;0.80;;
72728;SDS011;60843;52.062;4.508;2022-10-24T02:36:41;5.28;;;1.42;;
72728;SDS011;60843;52.062;4.508;2022-10-24T02:39:07;7.43;;;1.10;;
72728;SDS011;60843;52.062;4.508;2022-10-24T02:41:34;7.95;;;1.38;;
72728;SDS011;60843;52.062;4.508;2022-10-24T02:44:01;5.38;;;1.00;;
72728;SDS011;60843;52.062;4.508;2022-10-24T02:46:26;6.20;;;0.98;;
72728;SDS011;60843;52.062;4.508;2022-10-24T02:48:55;4.63;;;1.05;;
72728;SDS011;60843;52.062;4.508;2022-10-24T02:51:23;4.30;;;0.82;;
72728;SDS011;60843;52.062;4.508;2022-10-24T02:53:51;5.53;;;1.00;;
72728;SDS011;60843;52.062;4.508;2022-10-24T02:56:16;7.63;;;0.90;;
72728;SDS011;60843;52.062;4.508;2022-10-24T02:58:42;3.88;;;1.02;;
72728;SDS011;60843;52.062;4.508;2022-10-24T03:01:10;7.30;;;1.05;;
72728;SDS011;60843;52.062;4.508;2022-10-24T03:03:36;3.88;;;0.88;;
72728;SDS011;60843;52.062;4.508;2022-10-24T03:06:01;4.45;;;1.00;;
72728;SDS011;60843;52.062;4.508;2022-10-24T03:08:29;4.28;;;0.90;;
72728;SDS011;60843;52.062;4.508;2022-10-24T03:10:54;2.65;;;0.60;;
72728;SDS011;60843;52.062;4.508;2022-10-24T03:13:19;2.37;;;0.73;;
72728;SDS011;60843;52.062;4.508;2022-10-24T03:15:45;5.70;;;1.00;;
72728;SDS011;60843;52.062;4.508;2022-10-24T03:18:11;4.82;;;1.10;;
72728;SDS011;60843;52.062;4.508;2022-10-24T03:20:36;6.30;;;0.80;;
72728;SDS011;60843;52.062;4.508;2022-10-24T03:23:03;5.35;;;0.93;;
72728;SDS011;60843;52.062;4.508;2022-10-24T03:25:29;7.53;;;0.80;;
72728;SDS011;60843;52.062;4.508;2022-10-24T03:27:54;4.25;;;0.73;;
72728;SDS011;60843;52.062;4.508;2022-10-24T03:30:20;6.63;;;1.00;;
72728;SDS011;60843;52.062;4.508;2022-10-24T03:32:46;5.25;;;0.73;;
72728;SDS011;60843;52.062;4.508;2022-10-24T03:35:11;7.55;;;0.98;;
72728;SDS011;60843;52.062;4.508;2022-10-24T03:37:37;4.85;;;1.02;;
72728;SDS011;60843;52.062;4.508;2022-10-24T03:40:03;8.77;;;0.73;;
72728;SDS011;60843;52.062;4.508;2022-10-24T03:42:29;6.70;;;0.90;;
72728;SDS011;60843;52.062;4.508;2022-10-24T03:44:54;3.83;;;0.82;;
72728;SDS011;60843;52.062;4.508;2022-10-24T03:47:19;6.87;;;0.73;;
72728;SDS011;60843;52.062;4.508;2022-10-24T03:49:46;6.22;;;1.13;;
72728;SDS011;60843;52.062;4.508;2022-10-24T03:52:11;4.55;;;0.80;;
72728;SDS011;60843;52.062;4.508;2022-10-24T03:54:37;4.25;;;0.77;;
72728;SDS011;60843;52.062;4.508;2022-10-24T03:57:03;2.92;;;0.75;;
72728;SDS011;60843;52.062;4.508;2022-10-24T03:59:29;4.13;;;0.65;;
72728;SDS011;60843;52.062;4.508;2022-10-24T04:01:55;4.78;;;0.73;;
72728;SDS011;60843;52.062;4.508;2022-10-24T04:04:20;4.50;;;1.13;;
72728;SDS011;60843;52.062;4.508;2022-10-24T04:06:46;11.23;;;0.98;;
72728;SDS011;60843;52.062;4.508;2022-10-24T04:09:20;9.23;;;0.90;;
72728;SDS011;60843;52.062;4.508;2022-10-24T04:11:46;3.80;;;0.68;;
72728;SDS011;60843;52.062;4.508;2022-10-24T04:14:12;3.40;;;0.63;;
72728;SDS011;60843;52.062;4.508;2022-10-24T04:16:38;5.88;;;0.70;;
72728;SDS011;60843;52.062;4.508;2022-10-24T04:19:03;8.02;;;0.73;;
72728;SDS011;60843;52.062;4.508;2022-10-24T04:21:29;8.48;;;0.90;;
72728;SDS011;60843;52.062;4.508;2022-10-24T04:23:54;4.90;;;1.00;;
72728;SDS011;60843;52.062;4.508;2022-10-24T04:26:20;6.35;;;1.00;;
72728;SDS011;60843;52.062;4.508;2022-10-24T04:28:47;2.95;;;0.63;;
72728;SDS011;60843;52.062;4.508;2022-10-24T04:31:13;6.53;;;1.05;;
72728;SDS011;60843;52.062;4.508;2022-10-24T04:33:39;7.55;;;0.75;;
72728;SDS011;60843;52.062;4.508;2022-10-24T04:36:05;5.35;;;0.68;;
72728;SDS011;60843;52.062;4.508;2022-10-24T04:38:31;8.20;;;1.08;;
72728;SDS011;60843;52.062;4.508;2022-10-24T04:40:57;5.97;;;0.80;;
72728;SDS011;60843;52.062;4.508;2022-10-24T04:43:22;10.13;;;0.95;;
72728;SDS011;60843;52.062;4.508;2022-10-24T04:45:48;5.82;;;0.80;;
72728;SDS011;60843;52.062;4.508;2022-10-24T04:48:14;4.73;;;0.63;;
72728;SDS011;60843;52.062;4.508;2022-10-24T04:50:42;3.90;;;0.80;;
72728;SDS011;60843;52.062;4.508;2022-10-24T04:53:08;7.32;;;0.80;;
72728;SDS011;60843;52.062;4.508;2022-10-24T04:55:37;7.85;;;0.77;;
72728;SDS011;60843;52.062;4.508;2022-10-24T04:58:02;9.60;;;0.90;;
72728;SDS011;60843;52.062;4.508;2022-10-24T05:00:28;7.00;;;0.80;;
72728;SDS011;60843;52.062;4.508;2022-10-24T05:02:54;3.85;;;0.50;;
72728;SDS011;60843;52.062;4.508;2022-10-24T05:05:20;5.57;;;0.80;;
72728;SDS011;60843;52.062;4.508;2022-10-24T05:07:45;6.80;;;0.70;;
72728;SDS011;60843;52.062;4.508;2022-10-24T05:10:12;4.68;;;0.90;;
72728;SDS011;60843;52.062;4.508;2022-10-24T05:12:42;6.03;;;0.70;;
72728;SDS011;60843;52.062;4.508;2022-10-24T05:15:08;7.75;;;0.82;;
72728;SDS011;60843;52.062;4.508;2022-10-24T05:17:36;2.67;;;0.50;;
72728;SDS011;60843;52.062;4.508;2022-10-24T05:20:02;6.40;;;1.13;;
72728;SDS011;60843;52.062;4.508;2022-10-24T05:22:28;6.78;;;0.70;;
72728;SDS011;60843;52.062;4.508;2022-10-24T05:24:54;5.65;;;0.90;;
72728;SDS011;60843;52.062;4.508;2022-10-24T05:27:19;7.13;;;1.35;;
72728;SDS011;60843;52.062;4.508;2022-10-24T05:29:52;4.90;;;0.65;;
72728;SDS011;60843;52.062;4.508;2022-10-24T05:32:18;6.65;;;0.95;;
72728;SDS011;60843;52.062;4.508;2022-10-24T05:34:45;6.68;;;0.88;;
72728;SDS011;60843;52.062;4.508;2022-10-24T05:37:10;3.05;;;0.68;;
72728;SDS011;60843;52.062;4.508;2022-10-24T05:39:36;3.38;;;0.52;;
72728;SDS011;60843;52.062;4.508;2022-10-24T05:42:02;4.43;;;0.70;;
72728;SDS011;60843;52.062;4.508;2022-10-24T05:44:31;6.60;;;0.77;;
72728;SDS011;60843;52.062;4.508;2022-10-24T05:46:59;8.77;;;0.90;;
72728;SDS011;60843;52.062;4.508;2022-10-24T05:49:25;3.63;;;0.85;;
72728;SDS011;60843;52.062;4.508;2022-10-24T05:51:50;6.35;;;0.70;;
72728;SDS011;60843;52.062;4.508;2022-10-24T05:54:19;8.20;;;1.35;;
72728;SDS011;60843;52.062;4.508;2022-10-24T05:56:44;7.38;;;0.70;;
72728;SDS011;60843;52.062;4.508;2022-10-24T05:59:12;5.07;;;0.90;;
72728;SDS011;60843;52.062;4.508;2022-10-24T06:01:38;10.80;;;1.02;;
72728;SDS011;60843;52.062;4.508;2022-10-24T06:04:04;5.82;;;0.95;;
72728;SDS011;60843;52.062;4.508;2022-10-24T06:06:29;3.72;;;0.82;;
72728;SDS011;60843;52.062;4.508;2022-10-24T06:08:56;7.07;;;0.85;;
72728;SDS011;60843;52.062;4.508;2022-10-24T06:11:21;8.10;;;1.42;;
72728;SDS011;60843;52.062;4.508;2022-10-24T06:13:47;5.32;;;0.90;;
72728;SDS011;60843;52.062;4.508;2022-10-24T06:16:13;3.65;;;0.70;;
72728;SDS011;60843;52.062;4.508;2022-10-24T06:18:39;4.32;;;0.70;;
72728;SDS011;60843;52.062;4.508;2022-10-24T06:21:06;4.22;;;0.70;;
72728;SDS011;60843;52.062;4.508;2022-10-24T06:23:33;4.38;;;0.70;;
72728;SDS011;60843;52.062;4.508;2022-10-24T06:25:59;6.68;;;0.90;;
72728;SDS011;60843;52.062;4.508;2022-10-24T06:28:25;4.63;;;0.82;;
72728;SDS011;60843;52.062;4.508;2022-10-24T06:30:50;5.63;;;0.85;;
72728;SDS011;60843;52.062;4.508;2022-10-24T06:33:18;8.18;;;0.88;;
72728;SDS011;60843;52.062;4.508;2022-10-24T06:35:44;11.13;;;1.15;;
72728;SDS011;60843;52.062;4.508;2022-10-24T06:38:10;8.52;;;1.20;;
72728;SDS011;60843;52.062;4.508;2022-10-24T06:40:36;8.02;;;1.10;;
72728;SDS011;60843;52.062;4.508;2022-10-24T06:45:30;7.53;;;0.93;;
72728;SDS011;60843;52.062;4.508;2022-10-24T06:47:56;3.20;;;0.70;;
72728;SDS011;60843;52.062;4.508;2022-10-24T06:50:21;4.32;;;0.60;;
72728;SDS011;60843;52.062;4.508;2022-10-24T06:52:47;10.85;;;1.02;;
72728;SDS011;60843;52.062;4.508;2022-10-24T06:55:13;5.60;;;0.65;;
72728;SDS011;60843;52.062;4.508;2022-10-24T06:57:38;5.20;;;0.70;;
72728;SDS011;60843;52.062;4.508;2022-10-24T07:00:04;5.97;;;0.73;;
72728;SDS011;60843;52.062;4.508;2022-10-24T07:02:31;8.35;;;0.90;;
72728;SDS011;60843;52.062;4.508;2022-10-24T07:04:57;5.25;;;0.93;;
72728;SDS011;60843;52.062;4.508;2022-10-24T07:07:23;9.15;;;1.20;;
72728;SDS011;60843;52.062;4.508;2022-10-24T07:09:52;4.55;;;0.90;;
72728;SDS011;60843;52.062;4.508;2022-10-24T07:12:20;5.00;;;0.77;;
72728;SDS011;60843;52.062;4.508;2022-10-24T07:14:46;4.10;;;0.57;;
72728;SDS011;60843;52.062;4.508;2022-10-24T07:17:12;6.32;;;1.02;;
72728;SDS011;60843;52.062;4.508;2022-10-24T07:19:38;6.88;;;1.00;;
72728;SDS011;60843;52.062;4.508;2022-10-24T07:22:04;6.57;;;1.05;;
72728;SDS011;60843;52.062;4.508;2022-10-24T07:24:30;5.13;;;0.60;;
72728;SDS011;60843;52.062;4.508;2022-10-24T07:26:56;6.95;;;0.93;;
72728;SDS011;60843;52.062;4.508;2022-10-24T07:29:21;5.70;;;0.55;;
72728;SDS011;60843;52.062;4.508;2022-10-24T07:31:47;4.35;;;0.50;;
72728;SDS011;60843;52.062;4.508;2022-10-24T07:34:12;4.00;;;0.70;;
72728;SDS011;60843;52.062;4.508;2022-10-24T07:36:38;5.20;;;0.60;;
72728;SDS011;60843;52.062;4.508;2022-10-24T07:39:04;4.68;;;0.60;;
72728;SDS011;60843;52.062;4.508;2022-10-24T07:41:30;5.15;;;0.80;;
72728;SDS011;60843;52.062;4.508;2022-10-24T07:43:57;8.13;;;1.08;;
72728;SDS011;60843;52.062;4.508;2022-10-24T07:46:24;4.65;;;0.90;;
72728;SDS011;60843;52.062;4.508;2022-10-24T07:48:50;5.78;;;0.85;;
72728;SDS011;60843;52.062;4.508;2022-10-24T07:51:17;3.55;;;0.70;;
72728;SDS011;60843;52.062;4.508;2022-10-24T07:53:43;5.30;;;0.65;;
72728;SDS011;60843;52.062;4.508;2022-10-24T07:56:09;5.47;;;0.70;;
72728;SDS011;60843;52.062;4.508;2022-10-24T07:58:38;7.55;;;0.70;;
72728;SDS011;60843;52.062;4.508;2022-10-24T08:01:06;5.70;;;0.80;;
72728;SDS011;60843;52.062;4.508;2022-10-24T08:03:34;4.47;;;0.70;;
72728;SDS011;60843;52.062;4.508;2022-10-24T08:06:03;5.97;;;0.75;;
72728;SDS011;60843;52.062;4.508;2022-10-24T08:08:29;5.93;;;1.05;;
72728;SDS011;60843;52.062;4.508;2022-10-24T08:13:24;3.60;;;0.65;;
72728;SDS011;60843;52.062;4.508;2022-10-24T08:15:50;5.93;;;0.80;;
72728;SDS011;60843;52.062;4.508;2022-10-24T08:18:16;3.60;;;0.65;;
72728;SDS011;60843;52.062;4.508;2022-10-24T08:20:41;3.30;;;0.68;;
72728;SDS011;60843;52.062;4.508;2022-10-24T08:23:07;5.70;;;1.05;;
72728;SDS011;60843;52.062;4.508;2022-10-24T08:25:32;10.85;;;1.20;;
72728;SDS011;60843;52.062;4.508;2022-10-24T08:27:58;5.97;;;1.40;;
72728;SDS011;60843;52.062;4.508;2022-10-24T08:30:26;5.47;;;0.75;;
72728;SDS011;60843;52.062;4.508;2022-10-24T08:32:53;6.50;;;1.20;;
72728;SDS011;60843;52.062;4.508;2022-10-24T08:35:19;4.45;;;1.13;;
72728;SDS011;60843;52.062;4.508;2022-10-24T08:37:46;6.80;;;0.93;;
72728;SDS011;60843;52.062;4.508;2022-10-24T08:40:13;8.90;;;1.00;;
72728;SDS011;60843;52.062;4.508;2022-10-24T08:42:40;8.40;;;1.10;;
72728;SDS011;60843;52.062;4.508;2022-10-24T08:45:11;5.20;;;0.85;;
72728;SDS011;60843;52.062;4.508;2022-10-24T08:47:41;4.70;;;0.70;;
72728;SDS011;60843;52.062;4.508;2022-10-24T08:50:15;4.43;;;0.80;;
72728;SDS011;60843;52.062;4.508;2022-10-24T08:53:11;4.45;;;0.98;;
72728;SDS011;60843;52.062;4.508;2022-10-24T08:58:04;7.07;;;1.25;;
72728;SDS011;60843;52.062;4.508;2022-10-24T09:00:38;8.13;;;0.75;;
72728;SDS011;60843;52.062;4.508;2022-10-24T09:06:02;9.13;;;1.30;;
72728;SDS011;60843;52.062;4.508;2022-10-24T09:08:51;4.47;;;0.90;;
72728;SDS011;60843;52.062;4.508;2022-10-24T09:11:25;4.65;;;0.90;;
72728;SDS011;60843;52.062;4.508;2022-10-24T09:16:43;7.75;;;0.77;;
72728;SDS011;60843;52.062;4.508;2022-10-24T09:19:17;4.43;;;0.60;;
72728;SDS011;60843;52.062;4.508;2022-10-24T09:21:45;5.85;;;1.40;;
72728;SDS011;60843;52.062;4.508;2022-10-24T09:27:01;5.07;;;0.82;;
72728;SDS011;60843;52.062;4.508;2022-10-24T09:29:29;5.35;;;0.60;;
72728;SDS011;60843;52.062;4.508;2022-10-24T09:31:55;6.85;;;0.90;;
72728;SDS011;60843;52.062;4.508;2022-10-24T09:34:21;3.60;;;0.65;;
72728;SDS011;60843;52.062;4.508;2022-10-24T09:36:46;7.38;;;0.95;;
72728;SDS011;60843;52.062;4.508;2022-10-24T09:42:10;7.57;;;1.10;;
72728;SDS011;60843;52.062;4.508;2022-10-24T09:44:46;6.25;;;1.27;;
72728;SDS011;60843;52.062;4.508;2022-10-24T09:47:26;8.05;;;0.90;;
72728;SDS011;60843;52.062;4.508;2022-10-24T09:49:53;6.32;;;0.68;;
72728;SDS011;60843;52.062;4.508;2022-10-24T09:52:20;13.30;;;2.00;;
72728;SDS011;60843;52.062;4.508;2022-10-24T09:57:53;5.57;;;1.10;;
72728;SDS011;60843;52.062;4.508;2022-10-24T10:00:21;7.53;;;0.90;;
72728;SDS011;60843;52.062;4.508;2022-10-24T10:05:50;3.83;;;1.00;;
72728;SDS011;60843;52.062;4.508;2022-10-24T10:08:19;7.90;;;1.10;;
72728;SDS011;60843;52.062;4.508;2022-10-24T10:13:34;9.25;;;1.33;;
72728;SDS011;60843;52.062;4.508;2022-10-24T10:16:03;4.88;;;1.30;;
72728;SDS011;60843;52.062;4.508;2022-10-24T10:18:34;9.38;;;1.27;;
72728;SDS011;60843;52.062;4.508;2022-10-24T10:23:34;7.33;;;1.80;;
72728;SDS011;60843;52.062;4.508;2022-10-24T10:28:35;6.85;;;1.00;;
72728;SDS011;60843;52.062;4.508;2022-10-24T10:31:07;7.95;;;1.45;;
72728;SDS011;60843;52.062;4.508;2022-10-24T10:33:35;6.75;;;1.08;;
72728;SDS011;60843;52.062;4.508;2022-10-24T10:36:47;6.38;;;1.55;;
72728;SDS011;60843;52.062;4.508;2022-10-24T10:42:12;8.88;;;1.42;;
72728;SDS011;60843;52.062;4.508;2022-10-24T10:45:33;6.80;;;1.40;;
72728;SDS011;60843;52.062;4.508;2022-10-24T10:50:36;11.00;;;1.67;;
72728;SDS011;60843;52.062;4.508;2022-10-24T10:53:10;6.40;;;1.27;;
72728;SDS011;60843;52.062;4.508;2022-10-24T11:01:26;3.08;;;0.80;;
72728;SDS011;60843;52.062;4.508;2022-10-24T11:14:35;2.80;;;0.90;;
72728;SDS011;60843;52.062;4.508;2022-10-24T11:17:25;3.90;;;1.05;;
72728;SDS011;60843;52.062;4.508;2022-10-24T11:22:55;8.80;;;1.25;;
72728;SDS011;60843;52.062;4.508;2022-10-24T11:28:22;8.98;;;1.40;;
72728;SDS011;60843;52.062;4.508;2022-10-24T11:33:24;6.80;;;1.42;;
72728;SDS011;60843;52.062;4.508;2022-10-24T11:35:59;6.95;;;1.08;;
72728;SDS011;60843;52.062;4.508;2022-10-24T11:38:29;6.38;;;1.15;;
72728;SDS011;60843;52.062;4.508;2022-10-24T11:40:55;5.30;;;1.08;;
72728;SDS011;60843;52.062;4.508;2022-10-24T11:43:27;9.13;;;1.60;;
72728;SDS011;60843;52.062;4.508;2022-10-24T11:48:45;5.30;;;1.90;;
72728;SDS011;60843;52.062;4.508;2022-10-24T11:54:42;8.32;;;1.08;;
72728;SDS011;60843;52.062;4.508;2022-10-24T11:56:58;4.72;;;1.10;;
72728;SDS011;60843;52.062;4.508;2022-10-24T11:59:32;3.95;;;1.20;;
72728;SDS011;60843;52.062;4.508;2022-10-24T12:12:48;4.43;;;1.30;;
72728;SDS011;60843;52.062;4.508;2022-10-24T12:20:24;12.02;;;1.42;;
72728;SDS011;60843;52.062;4.508;2022-10-24T12:22:49;6.57;;;1.30;;
72728;SDS011;60843;52.062;4.508;2022-10-24T12:25:18;14.23;;;1.73;;
72728;SDS011;60843;52.062;4.508;2022-10-24T12:27:57;7.70;;;0.90;;
72728;SDS011;60843;52.062;4.508;2022-10-24T12:30:25;3.58;;;0.77;;
72728;SDS011;60843;52.062;4.508;2022-10-24T12:32:55;2.78;;;0.55;;
72728;SDS011;60843;52.062;4.508;2022-10-24T12:43:49;4.70;;;0.70;;
72728;SDS011;60843;52.062;4.508;2022-10-24T12:49:30;2.75;;;0.68;;
72728;SDS011;60843;52.062;4.508;2022-10-24T13:01:49;5.38;;;1.05;;
72728;SDS011;60843;52.062;4.508;2022-10-24T13:04:57;4.25;;;0.70;;
72728;SDS011;60843;52.062;4.508;2022-10-24T13:11:01;6.40;;;0.75;;
72728;SDS011;60843;52.062;4.508;2022-10-24T13:16:02;5.28;;;0.93;;
72728;SDS011;60843;52.062;4.508;2022-10-24T13:19:33;5.15;;;0.90;;
72728;SDS011;60843;52.062;4.508;2022-10-24T13:21:47;6.20;;;1.20;;
72728;SDS011;60843;52.062;4.508;2022-10-24T13:31:49;7.57;;;1.15;;
72728;SDS011;60843;52.062;4.508;2022-10-24T13:34:19;8.43;;;2.00;;
72728;SDS011;60843;52.062;4.508;2022-10-24T13:36:55;8.13;;;1.17;;
72728;SDS011;60843;52.062;4.508;2022-10-24T13:39:27;6.15;;;1.05;;
72728;SDS011;60843;52.062;4.508;2022-10-24T13:50:32;7.53;;;1.40;;
72728;SDS011;60843;52.062;4.508;2022-10-24T13:53:02;8.80;;;1.45;;
72728;SDS011;60843;52.062;4.508;2022-10-24T13:55:43;5.65;;;1.17;;
72728;SDS011;60843;52.062;4.508;2022-10-24T13:58:14;7.72;;;1.27;;
72728;SDS011;60843;52.062;4.508;2022-10-24T14:00:48;9.10;;;1.75;;
72728;SDS011;60843;52.062;4.508;2022-10-24T14:03:17;7.80;;;1.48;;
72728;SDS011;60843;52.062;4.508;2022-10-24T14:10:51;7.72;;;1.42;;
72728;SDS011;60843;52.062;4.508;2022-10-24T14:13:17;12.75;;;2.05;;
72728;SDS011;60843;52.062;4.508;2022-10-24T14:18:40;8.82;;;1.60;;
72728;SDS011;60843;52.062;4.508;2022-10-24T14:21:37;5.50;;;1.95;;
72728;SDS011;60843;52.062;4.508;2022-10-24T14:24:06;7.03;;;1.25;;
72728;SDS011;60843;52.062;4.508;2022-10-24T14:26:38;11.80;;;2.38;;
72728;SDS011;60843;52.062;4.508;2022-10-24T14:29:05;9.75;;;1.13;;
72728;SDS011;60843;52.062;4.508;2022-10-24T14:34:15;11.60;;;1.30;;
72728;SDS011;60843;52.062;4.508;2022-10-24T14:36:44;6.25;;;1.05;;
72728;SDS011;60843;52.062;4.508;2022-10-24T14:39:15;12.00;;;1.55;;
72728;SDS011;60843;52.062;4.508;2022-10-24T14:41:48;11.88;;;1.42;;
72728;SDS011;60843;52.062;4.508;2022-10-24T14:44:14;9.50;;;1.20;;
72728;SDS011;60843;52.062;4.508;2022-10-24T14:46:42;5.90;;;1.10;;
72728;SDS011;60843;52.062;4.508;2022-10-24T14:52:09;9.98;;;1.52;;
72728;SDS011;60843;52.062;4.508;2022-10-24T14:54:43;11.15;;;1.23;;
72728;SDS011;60843;52.062;4.508;2022-10-24T14:57:18;15.25;;;1.70;;
72728;SDS011;60843;52.062;4.508;2022-10-24T14:59:45;10.38;;;1.35;;
72728;SDS011;60843;52.062;4.508;2022-10-24T15:02:31;10.15;;;1.55;;
72728;SDS011;60843;52.062;4.508;2022-10-24T15:07:44;8.57;;;1.38;;
72728;SDS011;60843;52.062;4.508;2022-10-24T15:10:41;10.32;;;1.10;;
72728;SDS011;60843;52.062;4.508;2022-10-24T15:15:53;10.43;;;1.10;;
72728;SDS011;60843;52.062;4.508;2022-10-24T15:20:48;11.13;;;1.95;;
72728;SDS011;60843;52.062;4.508;2022-10-24T15:23:20;18.92;;;1.65;;
72728;SDS011;60843;52.062;4.508;2022-10-24T15:26:01;11.27;;;1.38;;
72728;SDS011;60843;52.062;4.508;2022-10-24T15:28:35;10.70;;;1.42;;
72728;SDS011;60843;52.062;4.508;2022-10-24T15:31:11;6.75;;;1.42;;
72728;SDS011;60843;52.062;4.508;2022-10-24T15:33:38;12.13;;;1.20;;
72728;SDS011;60843;52.062;4.508;2022-10-24T15:36:03;10.88;;;1.10;;
72728;SDS011;60843;52.062;4.508;2022-10-24T15:38:30;12.40;;;1.10;;
72728;SDS011;60843;52.062;4.508;2022-10-24T15:40:55;13.95;;;1.50;;
72728;SDS011;60843;52.062;4.508;2022-10-24T15:43:22;9.70;;;1.58;;
72728;SDS011;60843;52.062;4.508;2022-10-24T15:45:48;12.10;;;1.27;;
72728;SDS011;60843;52.062;4.508;2022-10-24T15:48:15;14.68;;;1.40;;
72728;SDS011;60843;52.062;4.508;2022-10-24T15:50:42;11.82;;;1.15;;
72728;SDS011;60843;52.062;4.508;2022-10-24T15:53:12;9.15;;;1.20;;
72728;SDS011;60843;52.062;4.508;2022-10-24T15:55:39;12.65;;;1.23;;
72728;SDS011;60843;52.062;4.508;2022-10-24T15:58:09;8.73;;;1.13;;
72728;SDS011;60843;52.062;4.508;2022-10-24T16:00:35;12.38;;;1.98;;
72728;SDS011;60843;52.062;4.508;2022-10-24T16:03:01;6.90;;;1.40;;
72728;SDS011;60843;52.062;4.508;2022-10-24T16:05:29;15.70;;;1.88;;
72728;SDS011;60843;52.062;4.508;2022-10-24T16:07:59;9.60;;;1.88;;
72728;SDS011;60843;52.062;4.508;2022-10-24T16:10:25;15.95;;;1.58;;
72728;SDS011;60843;52.062;4.508;2022-10-24T16:12:53;13.43;;;1.85;;
72728;SDS011;60843;52.062;4.508;2022-10-24T16:17:57;18.92;;;2.60;;
72728;SDS011;60843;52.062;4.508;2022-10-24T16:20:23;14.40;;;2.30;;
72728;SDS011;60843;52.062;4.508;2022-10-24T16:22:49;14.30;;;1.80;;
72728;SDS011;60843;52.062;4.508;2022-10-24T16:25:16;14.45;;;2.05;;
72728;SDS011;60843;52.062;4.508;2022-10-24T16:27:44;15.82;;;1.95;;
72728;SDS011;60843;52.062;4.508;2022-10-24T16:30:10;16.05;;;1.80;;
72728;SDS011;60843;52.062;4.508;2022-10-24T16:32:36;11.60;;;2.67;;
72728;SDS011;60843;52.062;4.508;2022-10-24T16:35:01;17.95;;;1.88;;
72728;SDS011;60843;52.062;4.508;2022-10-24T16:37:27;15.93;;;1.90;;
72728;SDS011;60843;52.062;4.508;2022-10-24T16:39:52;17.10;;;2.67;;
72728;SDS011;60843;52.062;4.508;2022-10-24T16:42:18;13.43;;;2.05;;
72728;SDS011;60843;52.062;4.508;2022-10-24T16:44:46;11.48;;;1.70;;
72728;SDS011;60843;52.062;4.508;2022-10-24T16:47:11;18.23;;;2.35;;
72728;SDS011;60843;52.062;4.508;2022-10-24T16:49:37;23.75;;;3.33;;
72728;SDS011;60843;52.062;4.508;2022-10-24T16:52:02;10.88;;;1.85;;
72728;SDS011;60843;52.062;4.508;2022-10-24T16:54:28;16.77;;;2.07;;
72728;SDS011;60843;52.062;4.508;2022-10-24T16:56:55;19.55;;;2.70;;
72728;SDS011;60843;52.062;4.508;2022-10-24T16:59:21;12.18;;;1.67;;
72728;SDS011;60843;52.062;4.508;2022-10-24T17:01:46;18.85;;;2.50;;
72728;SDS011;60843;52.062;4.508;2022-10-24T17:04:12;14.87;;;2.50;;
72728;SDS011;60843;52.062;4.508;2022-10-24T17:06:37;15.73;;;2.13;;
72728;SDS011;60843;52.062;4.508;2022-10-24T17:09:02;12.80;;;2.50;;
72728;SDS011;60843;52.062;4.508;2022-10-24T17:11:28;20.23;;;4.10;;
72728;SDS011;60843;52.062;4.508;2022-10-24T17:13:53;19.13;;;2.58;;
72728;SDS011;60843;52.062;4.508;2022-10-24T17:16:19;31.97;;;11.20;;
72728;SDS011;60843;52.062;4.508;2022-10-24T17:18:45;17.73;;;3.25;;
72728;SDS011;60843;52.062;4.508;2022-10-24T17:21:10;14.52;;;1.83;;
72728;SDS011;60843;52.062;4.508;2022-10-24T17:23:38;13.45;;;2.88;;
72728;SDS011;60843;52.062;4.508;2022-10-24T17:26:04;19.17;;;5.43;;
72728;SDS011;60843;52.062;4.508;2022-10-24T17:28:38;13.35;;;2.92;;
72728;SDS011;60843;52.062;4.508;2022-10-24T17:31:04;18.25;;;2.85;;
72728;SDS011;60843;52.062;4.508;2022-10-24T17:33:29;18.60;;;3.40;;
72728;SDS011;60843;52.062;4.508;2022-10-24T17:35:55;15.07;;;3.97;;
72728;SDS011;60843;52.062;4.508;2022-10-24T17:41:11;21.45;;;3.47;;
72728;SDS011;60843;52.062;4.508;2022-10-24T17:43:41;11.68;;;2.13;;
72728;SDS011;60843;52.062;4.508;2022-10-24T17:46:09;14.00;;;2.50;;
72728;SDS011;60843;52.062;4.508;2022-10-24T17:48:35;12.07;;;2.10;;
72728;SDS011;60843;52.062;4.508;2022-10-24T17:51:02;15.38;;;2.42;;